Terminal Aerodrome Forecast
Issued by NWS

Home | Current Version | Previous Version | Text Only | Print | Product List | Glossary Off
Versions: 1 2 3 4 5 6 7 8 9 10 11 12 13 14 15 16 17

942
FTUS43 KBIS 060529
TAFMOT
TAF
KMOT 060529Z 0606/0706 23008KT P6SM SCT250
     FM061400 24012KT P6SM BKN080 WS020/29040KT
     FM061800 24018G27KT P6SM BKN150 WS020/27050KT
     FM062200 25026G36KT P6SM BKN130
     FM070100 26028G38KT P6SM VCSH BKN035
     FM070400 28038G53KT P6SM VCSH OVC030=

USA.gov is the U.S. government's official web portal to all federal, state and local government web resources and services.